createdAt,value
2022-10-22T00:00:04.356Z,10.60
2022-10-22T00:02:32.057Z,10.60
2022-10-22T00:04:59.530Z,10.60
2022-10-22T00:07:26.279Z,10.60
2022-10-22T00:09:53.013Z,10.60
2022-10-22T00:12:19.843Z,10.60
2022-10-22T00:14:47.000Z,10.60
2022-10-22T00:17:14.183Z,10.60
2022-10-22T00:19:41.285Z,10.50
2022-10-22T00:22:09.931Z,10.50
2022-10-22T00:24:37.851Z,10.60
2022-10-22T00:27:06.383Z,10.50
2022-10-22T00:29:33.359Z,10.60
2022-10-22T00:32:00.366Z,10.60
2022-10-22T00:34:27.198Z,10.60
2022-10-22T00:36:54.050Z,10.60
2022-10-22T00:39:22.655Z,10.60
2022-10-22T00:41:51.781Z,10.60
2022-10-22T00:44:55.889Z,10.60
2022-10-22T00:47:25.282Z,10.70
2022-10-22T00:49:53.816Z,10.60
2022-10-22T00:52:21.829Z,10.60
2022-10-22T00:54:49.022Z,10.60
2022-10-22T00:57:17.692Z,10.60
2022-10-22T00:59:44.595Z,10.60
2022-10-22T01:02:11.433Z,10.60
2022-10-22T01:04:38.200Z,10.70
2022-10-22T01:07:05.474Z,10.80
2022-10-22T01:10:00.371Z,10.60
2022-10-22T01:12:48.870Z,10.70
2022-10-22T01:15:46.302Z,10.70
2022-10-22T01:18:24.789Z,10.70
2022-10-22T01:21:12.334Z,10.80
2022-10-22T01:23:54.146Z,10.70
2022-10-22T01:26:35.794Z,10.80
2022-10-22T01:29:15.752Z,10.70
2022-10-22T01:31:48.353Z,10.70
2022-10-22T01:34:17.910Z,10.80
2022-10-22T01:36:46.763Z,10.80
2022-10-22T01:39:15.406Z,10.80
2022-10-22T01:41:47.497Z,10.80
2022-10-22T01:44:33.872Z,10.80
2022-10-22T01:47:17.091Z,10.80
2022-10-22T01:50:14.695Z,10.80
2022-10-22T01:52:52.025Z,10.80
2022-10-22T01:55:57.400Z,10.80
2022-10-22T01:58:39.212Z,10.80
2022-10-22T02:01:21.218Z,10.80
2022-10-22T02:04:13.691Z,10.80
2022-10-22T02:06:44.026Z,10.80
2022-10-22T02:09:13.657Z,10.80
2022-10-22T02:11:42.425Z,10.80
2022-10-22T02:14:10.779Z,10.80
2022-10-22T02:16:42.678Z,10.80
2022-10-22T02:19:24.338Z,10.80
2022-10-22T02:21:52.038Z,10.80
2022-10-22T02:24:19.595Z,10.80
2022-10-22T02:27:28.115Z,10.80
2022-10-22T02:29:54.782Z,10.80
2022-10-22T02:32:26.741Z,10.90
2022-10-22T02:34:55.400Z,10.80
2022-10-22T02:37:24.309Z,10.80
2022-10-22T02:39:52.519Z,10.80
2022-10-22T02:42:19.375Z,10.80
2022-10-22T02:44:46.167Z,10.80
2022-10-22T02:47:13.662Z,10.90
2022-10-22T02:49:40.383Z,10.90
2022-10-22T02:52:08.654Z,10.90
2022-10-22T02:54:35.423Z,10.90
2022-10-22T02:57:02.247Z,10.80
2022-10-22T02:59:29.063Z,10.80
2022-10-22T03:01:55.780Z,10.80
2022-10-22T03:04:22.493Z,10.90
2022-10-22T03:06:49.350Z,10.90
2022-10-22T03:09:16.912Z,10.90
2022-10-22T03:11:44.901Z,11.00
2022-10-22T03:14:11.629Z,10.90
2022-10-22T03:16:38.374Z,10.90
2022-10-22T03:19:05.174Z,10.90
2022-10-22T03:21:57.300Z,10.90
2022-10-22T03:24:28.573Z,10.90
2022-10-22T03:26:55.336Z,10.90
2022-10-22T03:29:25.509Z,10.90
2022-10-22T03:31:53.433Z,10.90
2022-10-22T03:34:20.403Z,11.00
2022-10-22T03:36:48.564Z,10.90
2022-10-22T03:39:17.733Z,11.00
2022-10-22T03:41:44.847Z,10.90
2022-10-22T03:44:12.171Z,11.00
2022-10-22T03:46:38.906Z,10.90
2022-10-22T03:49:05.655Z,10.90
2022-10-22T03:51:32.657Z,10.80
2022-10-22T03:53:59.563Z,10.80
2022-10-22T03:56:26.309Z,10.80
2022-10-22T03:58:57.416Z,10.80
2022-10-22T04:01:24.845Z,10.90
2022-10-22T04:03:51.697Z,10.90
2022-10-22T04:06:18.521Z,10.90
2022-10-22T04:08:45.945Z,10.90
2022-10-22T04:11:14.939Z,11.00
2022-10-22T04:13:42.729Z,11.00
2022-10-22T04:16:16.795Z,11.10
2022-10-22T04:18:44.515Z,11.10
2022-10-22T04:21:13.108Z,11.20
2022-10-22T04:23:44.451Z,11.20
2022-10-22T04:26:11.198Z,11.20
2022-10-22T04:28:37.963Z,11.20
2022-10-22T04:31:09.832Z,11.30
2022-10-22T04:33:36.593Z,11.30
2022-10-22T04:36:14.919Z,11.30
2022-10-22T04:38:42.959Z,11.30
2022-10-22T04:41:18.081Z,11.30
2022-10-22T04:43:45.636Z,11.30
2022-10-22T04:46:13.634Z,11.40
2022-10-22T04:48:42.136Z,11.50
2022-10-22T04:51:13.160Z,11.60
2022-10-22T04:53:42.919Z,11.70
2022-10-22T04:56:12.173Z,11.70
2022-10-22T04:58:39.274Z,11.70
2022-10-22T05:01:11.514Z,11.80
2022-10-22T05:03:38.434Z,11.80
2022-10-22T05:06:05.447Z,11.70
2022-10-22T05:08:32.241Z,11.60
2022-10-22T05:10:59.026Z,11.60
2022-10-22T05:13:25.877Z,11.50
2022-10-22T05:15:52.634Z,11.60
2022-10-22T05:18:21.861Z,11.60
2022-10-22T05:20:49.461Z,11.60
2022-10-22T05:23:16.188Z,11.60
2022-10-22T05:25:42.925Z,11.60
2022-10-22T05:28:09.684Z,11.60
2022-10-22T05:30:36.407Z,11.60
2022-10-22T05:33:03.139Z,11.60
2022-10-22T05:35:29.936Z,11.60
2022-10-22T05:40:31.033Z,11.60
2022-10-22T05:42:58.831Z,11.60
2022-10-22T05:45:25.647Z,11.80
2022-10-22T05:47:52.395Z,11.90
2022-10-22T05:50:19.131Z,12.00
2022-10-22T05:52:45.854Z,12.00
2022-10-22T05:55:12.583Z,12.10
2022-10-22T05:57:40.231Z,12.10
2022-10-22T06:00:09.552Z,12.10
2022-10-22T06:02:38.610Z,12.00
2022-10-22T06:05:05.671Z,12.10
2022-10-22T06:07:33.401Z,12.10
2022-10-22T06:10:00.382Z,12.00
2022-10-22T06:12:27.119Z,12.00
2022-10-22T06:14:53.982Z,12.10
2022-10-22T06:17:20.735Z,12.10
2022-10-22T06:19:47.462Z,12.10
2022-10-22T06:22:14.203Z,12.00
2022-10-22T06:24:42.946Z,12.00
2022-10-22T06:27:11.826Z,12.00
2022-10-22T06:29:38.577Z,12.00
2022-10-22T06:32:05.505Z,12.00
2022-10-22T06:34:32.555Z,12.10
2022-10-22T06:36:59.300Z,12.10
2022-10-22T06:39:26.029Z,12.10
2022-10-22T06:41:52.934Z,12.10
2022-10-22T06:44:20.333Z,12.10
2022-10-22T06:46:52.101Z,12.10
2022-10-22T06:49:20.577Z,12.10
2022-10-22T06:51:51.122Z,12.10
2022-10-22T06:54:17.849Z,12.10
2022-10-22T06:56:44.753Z,12.20
2022-10-22T06:59:11.589Z,12.20
2022-10-22T07:01:38.813Z,12.20
2022-10-22T07:04:06.556Z,12.20
2022-10-22T07:06:33.311Z,12.30
2022-10-22T07:09:00.645Z,12.30
2022-10-22T07:11:29.969Z,12.30
2022-10-22T07:13:59.802Z,12.30
2022-10-22T07:16:29.717Z,12.30
2022-10-22T07:18:59.238Z,12.30
2022-10-22T07:21:26.157Z,12.40
2022-10-22T07:23:53.079Z,12.40
2022-10-22T07:26:24.865Z,12.40
2022-10-22T07:28:51.754Z,12.40
2022-10-22T07:31:19.035Z,12.50
2022-10-22T07:33:45.995Z,12.50
2022-10-22T07:36:17.651Z,12.50
2022-10-22T07:38:49.280Z,12.60
2022-10-22T07:41:16.962Z,12.70
2022-10-22T07:43:43.701Z,12.70
2022-10-22T07:46:10.800Z,12.80
2022-10-22T07:48:37.923Z,12.70
2022-10-22T07:51:05.647Z,12.80
2022-10-22T07:53:32.685Z,12.80
2022-10-22T07:56:01.626Z,12.90
2022-10-22T07:58:28.609Z,12.90
2022-10-22T08:00:57.201Z,13.00
2022-10-22T08:03:24.149Z,13.00
2022-10-22T08:05:52.353Z,13.10
2022-10-22T08:08:19.524Z,13.10
2022-10-22T08:10:48.126Z,13.10
2022-10-22T08:13:15.287Z,13.20
2022-10-22T08:15:46.195Z,13.20
2022-10-22T08:18:13.625Z,13.30
2022-10-22T08:20:41.480Z,13.30
2022-10-22T08:23:08.608Z,13.40
2022-10-22T08:25:35.597Z,13.40
2022-10-22T08:28:02.359Z,13.50
2022-10-22T08:30:29.780Z,13.50
2022-10-22T08:32:57.148Z,13.50
2022-10-22T08:35:24.076Z,13.50
2022-10-22T08:37:50.938Z,13.50
2022-10-22T08:40:31.726Z,13.60
2022-10-22T08:43:21.607Z,13.70
2022-10-22T08:46:10.031Z,13.70
2022-10-22T08:48:50.584Z,13.70
2022-10-22T08:51:21.557Z,13.80
2022-10-22T08:54:10.449Z,13.80
2022-10-22T08:56:40.295Z,13.90
2022-10-22T08:59:37.760Z,13.80
2022-10-22T09:02:14.336Z,13.80
2022-10-22T09:04:48.846Z,13.90
2022-10-22T09:07:15.694Z,13.90
2022-10-22T09:09:51.025Z,13.90
2022-10-22T09:12:20.269Z,13.90
2022-10-22T09:14:47.426Z,13.90
2022-10-22T09:17:36.661Z,13.90
2022-10-22T09:20:32.797Z,13.90
2022-10-22T09:23:27.955Z,14.00
2022-10-22T09:25:56.922Z,14.10
2022-10-22T09:28:23.697Z,14.20
2022-10-22T09:30:50.601Z,14.30
2022-10-22T09:33:25.743Z,14.20
2022-10-22T09:35:58.740Z,14.30
2022-10-22T09:38:31.686Z,14.20
2022-10-22T09:41:00.960Z,14.20
2022-10-22T09:43:27.815Z,14.20
2022-10-22T09:45:59.815Z,14.20
2022-10-22T09:48:34.379Z,14.20
2022-10-22T09:51:19.596Z,14.20
2022-10-22T09:53:58.338Z,14.30
2022-10-22T09:56:38.703Z,14.40
2022-10-22T09:59:06.551Z,14.40
2022-10-22T10:01:35.646Z,14.50
2022-10-22T10:04:14.477Z,14.50
2022-10-22T10:06:43.810Z,14.60
2022-10-22T10:09:19.314Z,14.60
2022-10-22T10:11:53.547Z,14.60
2022-10-22T10:14:44.407Z,14.60
2022-10-22T10:17:20.481Z,14.80
2022-10-22T10:20:24.334Z,14.80
2022-10-22T10:23:10.277Z,15.10
2022-10-22T10:25:47.999Z,15.30
2022-10-22T10:28:20.716Z,15.30
2022-10-22T10:31:11.757Z,15.30
2022-10-22T10:33:59.871Z,15.30
2022-10-22T10:36:54.358Z,15.50
2022-10-22T10:39:39.333Z,15.80
2022-10-22T10:42:44.421Z,16.00
2022-10-22T10:45:31.992Z,16.40
2022-10-22T10:48:36.019Z,16.60
2022-10-22T10:51:25.202Z,16.50
2022-10-22T10:54:18.479Z,16.60
2022-10-22T10:56:47.676Z,16.50
2022-10-22T10:59:33.738Z,16.40
2022-10-22T11:02:38.293Z,16.50
2022-10-22T11:05:23.631Z,16.50
2022-10-22T11:08:19.003Z,16.60
2022-10-22T11:10:54.902Z,16.50
2022-10-22T11:13:35.045Z,16.60
2022-10-22T11:16:16.938Z,16.70
2022-10-22T11:19:06.094Z,16.80
2022-10-22T11:21:49.893Z,16.90
2022-10-22T11:24:50.655Z,17.10
2022-10-22T11:28:01.413Z,17.40
2022-10-22T11:30:37.857Z,17.50
2022-10-22T11:33:11.258Z,17.30
2022-10-22T11:35:40.222Z,17.30
2022-10-22T11:38:10.235Z,17.30
2022-10-22T11:40:42.789Z,17.30
2022-10-22T11:43:25.572Z,17.30
2022-10-22T11:45:58.282Z,17.10
2022-10-22T11:48:28.443Z,17.40
2022-10-22T11:51:01.193Z,17.90
2022-10-22T11:53:36.369Z,18.30
2022-10-22T11:56:13.048Z,18.40
2022-10-22T11:58:44.849Z,18.40
2022-10-22T12:01:11.622Z,18.40
2022-10-22T12:03:43.832Z,18.30
2022-10-22T12:06:15.381Z,18.50
2022-10-22T12:08:50.335Z,18.50
2022-10-22T12:11:26.641Z,18.80
2022-10-22T12:14:14.271Z,19.40
2022-10-22T12:16:56.215Z,20.40
2022-10-22T12:19:29.005Z,21.80
2022-10-22T12:22:07.298Z,21.40
2022-10-22T12:24:41.051Z,21.00
2022-10-22T12:27:35.664Z,20.40
2022-10-22T12:30:16.932Z,19.80
2022-10-22T12:32:43.795Z,19.30
2022-10-22T12:35:20.123Z,20.00
2022-10-22T12:37:52.010Z,19.90
2022-10-22T12:40:24.803Z,19.60
2022-10-22T12:42:57.059Z,19.40
2022-10-22T12:45:27.494Z,18.90
2022-10-22T12:47:59.479Z,18.50
2022-10-22T12:50:40.859Z,18.40
2022-10-22T12:53:17.689Z,18.30
2022-10-22T12:55:49.838Z,18.10
2022-10-22T12:58:19.950Z,17.80
2022-10-22T13:00:48.501Z,17.70
2022-10-22T13:03:27.730Z,17.70
2022-10-22T13:05:54.660Z,17.70
2022-10-22T13:08:26.656Z,17.70
2022-10-22T13:10:54.935Z,17.70
2022-10-22T13:13:41.963Z,17.90
2022-10-22T13:16:15.730Z,19.30
2022-10-22T13:18:43.768Z,20.70
2022-10-22T13:21:32.477Z,20.80
2022-10-22T13:24:18.827Z,20.30
2022-10-22T13:26:49.535Z,19.90
2022-10-22T13:29:19.313Z,19.20
2022-10-22T13:31:51.399Z,19.00
2022-10-22T13:34:24.132Z,19.60
2022-10-22T13:36:51.079Z,20.80
2022-10-22T13:39:23.559Z,20.90
2022-10-22T13:41:51.413Z,20.20
2022-10-22T13:44:19.571Z,19.80
2022-10-22T13:46:48.314Z,19.80
2022-10-22T13:49:22.431Z,19.50
2022-10-22T13:51:50.819Z,19.20
2022-10-22T13:54:20.916Z,18.90
2022-10-22T13:56:47.973Z,19.00
2022-10-22T13:59:16.272Z,18.90
2022-10-22T14:01:45.810Z,18.70
2022-10-22T14:04:15.410Z,18.70
2022-10-22T14:06:42.746Z,20.30
2022-10-22T14:09:14.871Z,21.80
2022-10-22T14:11:41.743Z,21.60
2022-10-22T14:14:09.170Z,22.40
2022-10-22T14:16:37.532Z,23.40
2022-10-22T14:19:07.228Z,23.90
2022-10-22T14:21:37.899Z,24.60
2022-10-22T14:24:07.247Z,24.80
2022-10-22T14:26:36.487Z,24.80
2022-10-22T14:29:09.211Z,24.90
2022-10-22T14:31:42.159Z,24.90
2022-10-22T14:34:14.651Z,24.50
2022-10-22T14:36:43.740Z,23.60
2022-10-22T14:39:11.565Z,23.50
2022-10-22T14:41:38.612Z,23.30
2022-10-22T14:44:05.457Z,23.60
2022-10-22T14:46:32.261Z,24.10
2022-10-22T14:48:58.987Z,23.10
2022-10-22T14:51:25.757Z,21.50
2022-10-22T14:53:52.563Z,20.50
2022-10-22T14:56:23.074Z,19.80
2022-10-22T14:58:50.282Z,19.30
2022-10-22T15:01:17.172Z,19.40
2022-10-22T15:03:44.131Z,20.20
2022-10-22T15:06:10.926Z,20.30
2022-10-22T15:08:38.109Z,21.00
2022-10-22T15:11:11.617Z,21.70
2022-10-22T15:13:39.321Z,21.40
2022-10-22T15:16:08.063Z,20.70
2022-10-22T15:18:35.087Z,20.70
2022-10-22T15:21:15.097Z,20.50
2022-10-22T15:23:41.944Z,20.50
2022-10-22T15:26:09.836Z,20.10
2022-10-22T15:28:37.529Z,19.70
2022-10-22T15:31:05.195Z,19.20
2022-10-22T15:33:32.002Z,18.70
2022-10-22T15:35:58.854Z,18.20
2022-10-22T15:41:05.694Z,17.60
2022-10-22T15:43:33.765Z,17.20
2022-10-22T15:46:21.777Z,17.00
2022-10-22T15:48:50.958Z,16.70
2022-10-22T15:51:19.269Z,16.50
2022-10-22T15:53:54.655Z,16.40
2022-10-22T15:56:22.109Z,16.30
2022-10-22T15:58:53.333Z,16.10
2022-10-22T16:01:20.295Z,15.80
2022-10-22T16:03:47.265Z,15.60
2022-10-22T16:06:14.006Z,15.40
2022-10-22T16:08:40.863Z,15.30
2022-10-22T16:11:07.749Z,15.10
2022-10-22T16:13:36.821Z,15.00
2022-10-22T16:16:10.569Z,14.80
2022-10-22T16:18:37.437Z,14.80
2022-10-22T16:21:04.420Z,14.60
2022-10-22T16:23:31.233Z,14.50
2022-10-22T16:26:02.039Z,14.40
2022-10-22T16:28:29.141Z,14.40
2022-10-22T16:30:55.894Z,14.20
2022-10-22T16:33:22.694Z,14.20
2022-10-22T16:35:49.476Z,14.00
2022-10-22T16:38:18.838Z,13.90
2022-10-22T16:40:45.752Z,13.80
2022-10-22T16:43:12.885Z,13.70
2022-10-22T16:45:39.811Z,13.70
2022-10-22T16:48:06.602Z,13.60
2022-10-22T16:50:33.373Z,13.50
2022-10-22T16:53:00.087Z,13.40
2022-10-22T16:55:26.778Z,13.30
2022-10-22T16:57:53.758Z,13.10
2022-10-22T17:00:21.831Z,13.10
2022-10-22T17:02:53.219Z,13.00
2022-10-22T17:05:20.542Z,13.00
2022-10-22T17:07:47.312Z,13.00
2022-10-22T17:10:14.462Z,12.90
2022-10-22T17:12:41.471Z,12.70
2022-10-22T17:15:08.750Z,12.60
2022-10-22T17:17:35.644Z,12.60
2022-10-22T17:20:02.432Z,12.50
2022-10-22T17:22:29.820Z,12.40
2022-10-22T17:25:12.002Z,12.40
2022-10-22T17:27:39.383Z,12.30
2022-10-22T17:30:07.316Z,12.20
2022-10-22T17:32:39.075Z,12.20
2022-10-22T17:35:07.381Z,12.20
2022-10-22T17:37:34.927Z,12.20
2022-10-22T17:40:02.795Z,12.30
2022-10-22T17:42:30.060Z,12.30
2022-10-22T17:44:57.379Z,12.30
2022-10-22T17:47:24.509Z,12.30
2022-10-22T17:49:51.590Z,12.30
2022-10-22T17:52:18.468Z,12.00
2022-10-22T17:54:45.286Z,11.90
2022-10-22T17:57:15.098Z,11.90
2022-10-22T17:59:41.882Z,11.90
2022-10-22T18:02:15.197Z,11.90
2022-10-22T18:04:42.130Z,11.90
2022-10-22T18:07:08.866Z,11.90
2022-10-22T18:09:35.963Z,11.80
2022-10-22T18:12:06.321Z,11.80
2022-10-22T18:14:33.413Z,11.90
2022-10-22T18:17:02.570Z,11.80
2022-10-22T18:19:30.396Z,11.80
2022-10-22T18:21:57.325Z,11.80
2022-10-22T18:24:24.409Z,11.70
2022-10-22T18:26:52.338Z,11.50
2022-10-22T18:29:20.479Z,11.40
2022-10-22T18:31:48.080Z,11.40
2022-10-22T18:34:16.637Z,11.40
2022-10-22T18:36:46.210Z,11.40
2022-10-22T18:39:15.424Z,11.40
2022-10-22T18:41:43.250Z,11.30
2022-10-22T18:44:13.064Z,11.30
2022-10-22T18:46:40.449Z,11.30
2022-10-22T18:49:10.774Z,11.30
2022-10-22T18:51:42.237Z,11.20
2022-10-22T18:54:25.017Z,11.20
2022-10-22T18:56:55.506Z,11.00
2022-10-22T18:59:27.862Z,10.80
2022-10-22T19:01:59.299Z,10.60
2022-10-22T19:04:32.995Z,10.70
2022-10-22T19:06:59.922Z,10.50
2022-10-22T19:09:26.953Z,10.50
2022-10-22T19:11:53.884Z,10.50
2022-10-22T19:14:22.204Z,10.40
2022-10-22T19:16:50.209Z,10.50
2022-10-22T19:19:19.642Z,10.50
2022-10-22T19:21:49.407Z,10.50
2022-10-22T19:24:18.495Z,10.50
2022-10-22T19:26:46.577Z,10.40
2022-10-22T19:29:19.381Z,10.40
2022-10-22T19:31:47.531Z,10.50
2022-10-22T19:34:14.403Z,10.50
2022-10-22T19:36:41.401Z,10.50
2022-10-22T19:39:09.059Z,10.30
2022-10-22T19:41:36.856Z,10.30
2022-10-22T19:44:03.777Z,10.20
2022-10-22T19:46:32.820Z,10.10
2022-10-22T19:49:01.455Z,10.00
2022-10-22T19:51:33.852Z,10.00
2022-10-22T19:54:07.159Z,9.90
2022-10-22T19:56:35.084Z,9.90
2022-10-22T19:59:03.226Z,10.00
2022-10-22T20:01:31.764Z,9.90
2022-10-22T20:03:58.809Z,9.90
2022-10-22T20:06:26.374Z,9.90
2022-10-22T20:08:56.020Z,9.80
2022-10-22T20:11:33.510Z,9.80
2022-10-22T20:14:03.171Z,9.80
2022-10-22T20:16:31.641Z,9.70
2022-10-22T20:19:04.269Z,9.60
2022-10-22T20:21:31.657Z,9.50
2022-10-22T20:23:59.317Z,9.50
2022-10-22T20:26:28.181Z,9.50
2022-10-22T20:28:56.341Z,9.50
2022-10-22T20:31:25.033Z,9.40
2022-10-22T20:33:51.993Z,9.30
2022-10-22T20:36:21.909Z,9.30
2022-10-22T20:38:51.508Z,9.30
2022-10-22T20:41:21.580Z,9.30
2022-10-22T20:43:51.118Z,9.20
2022-10-22T20:46:26.996Z,9.30
2022-10-22T20:48:56.931Z,9.30
2022-10-22T20:51:23.977Z,9.20
2022-10-22T20:53:50.804Z,9.10
2022-10-22T20:56:21.427Z,9.10
2022-10-22T20:58:49.222Z,9.10
2022-10-22T21:01:24.129Z,9.00
2022-10-22T21:03:53.137Z,9.00
2022-10-22T21:06:23.236Z,8.90
2022-10-22T21:08:51.420Z,8.90
2022-10-22T21:11:20.153Z,8.90
2022-10-22T21:13:47.174Z,8.90
2022-10-22T21:16:15.341Z,8.90
2022-10-22T21:18:42.781Z,8.80
2022-10-22T21:21:10.675Z,8.80
2022-10-22T21:23:37.680Z,8.90
2022-10-22T21:26:05.394Z,8.80
2022-10-22T21:28:36.579Z,8.90
2022-10-22T21:31:07.992Z,8.80
2022-10-22T21:33:39.490Z,8.80
2022-10-22T21:36:11.840Z,8.80
2022-10-22T21:38:38.844Z,8.60
2022-10-22T21:41:07.539Z,8.60
2022-10-22T21:43:39.263Z,8.50
2022-10-22T21:46:20.021Z,8.50
2022-10-22T21:48:47.745Z,8.40
2022-10-22T21:51:16.999Z,8.50
2022-10-22T21:53:47.607Z,8.60
2022-10-22T21:56:20.915Z,8.60
2022-10-22T21:58:48.140Z,8.60
2022-10-22T22:01:15.760Z,8.60
2022-10-22T22:03:45.053Z,8.60
2022-10-22T22:06:13.206Z,8.60
2022-10-22T22:08:40.533Z,8.70
2022-10-22T22:11:16.965Z,8.60
2022-10-22T22:13:44.162Z,8.60
2022-10-22T22:16:14.283Z,8.60
2022-10-22T22:18:41.479Z,8.50
2022-10-22T22:21:13.760Z,8.50
2022-10-22T22:23:43.978Z,8.40
2022-10-22T22:26:11.888Z,8.40
2022-10-22T22:28:38.837Z,8.40
2022-10-22T22:31:17.094Z,8.40
2022-10-22T22:33:44.262Z,8.40
2022-10-22T22:36:11.599Z,8.40
2022-10-22T22:38:38.657Z,8.40
2022-10-22T22:41:06.022Z,8.40
2022-10-22T22:43:33.310Z,8.30
2022-10-22T22:46:04.338Z,8.20
2022-10-22T22:48:31.526Z,8.10
2022-10-22T22:51:00.036Z,8.10
2022-10-22T22:53:28.293Z,8.20
2022-10-22T22:56:11.513Z,8.20
2022-10-22T22:58:40.475Z,8.20
2022-10-22T23:01:16.423Z,8.20
2022-10-22T23:03:45.146Z,8.20
2022-10-22T23:06:12.850Z,8.10
2022-10-22T23:08:40.406Z,8.10
2022-10-22T23:11:10.702Z,8.10
2022-10-22T23:13:38.669Z,8.10
2022-10-22T23:16:12.573Z,8.10
2022-10-22T23:18:39.553Z,8.10
2022-10-22T23:21:10.995Z,8.10
2022-10-22T23:23:37.735Z,8.00
2022-10-22T23:26:04.662Z,8.00
2022-10-22T23:28:31.421Z,8.00
2022-10-22T23:30:58.219Z,8.10
2022-10-22T23:33:24.947Z,8.10
2022-10-22T23:35:51.662Z,8.10
2022-10-22T23:38:18.447Z,8.10
2022-10-22T23:40:45.202Z,8.10
2022-10-22T23:43:11.930Z,8.10
2022-10-22T23:45:38.703Z,8.10
2022-10-22T23:48:05.659Z,8.10
2022-10-22T23:50:32.401Z,8.20
2022-10-22T23:52:59.131Z,8.30
2022-10-22T23:55:25.849Z,8.30
2022-10-22T23:57:52.595Z,8.30
